Broadmoor Village, California
Current Conditions -  °F | °C
As of 11:56 AM on Monday 22 Dec 2014 (Local Time) from KSFO Reporting Station
Moderate Fog Moderate Fog  
Wind Chill: 55°   Ceiling: 200
Heat Index: 55°   Visibility: 0.12mi
Dew Point: 55°   Wind: 0mph
Humidity: 100%   Direction: NA
Pressure: 30.26"   Gusts: NA
Location:  37.6817°N, 122.48°W
Report Text: KSFO 221956Z 00000KT 1/8SM R28R/1200V2600FT FG VV002 13/13 A3026 RMK AO2 SLP245 T01280128
Loading
Personal Weather Stations






























Interactive Weather Map New forecast layout! Learn more

10-Day Weather Forecast

Advertisements
Track Severe Weather on mobile